createdAt,value
2023-03-05T00:00:52.410Z,2.74
2023-03-05T00:02:54.899Z,2.58
2023-03-05T00:04:57.209Z,2.28
2023-03-05T00:06:59.589Z,2.34
2023-03-05T00:09:02.293Z,2.61
2023-03-05T00:11:09.063Z,2.68
2023-03-05T00:13:11.479Z,2.46
2023-03-05T00:15:13.996Z,2.60
2023-03-05T00:17:16.321Z,2.57
2023-03-05T00:19:19.066Z,2.77
2023-03-05T00:21:28.085Z,2.44
2023-03-05T00:23:30.964Z,2.59
2023-03-05T00:25:36.450Z,2.65
2023-03-05T00:27:38.864Z,2.60
2023-03-05T00:29:41.241Z,2.38
2023-03-05T00:31:44.640Z,2.30
2023-03-05T00:33:50.641Z,2.58
2023-03-05T00:35:53.358Z,2.44
2023-03-05T00:37:56.195Z,2.14
2023-03-05T00:39:58.493Z,2.69
2023-03-05T00:42:01.059Z,2.28
2023-03-05T00:44:04.852Z,2.58
2023-03-05T00:46:07.614Z,2.72
2023-03-05T00:48:10.273Z,2.75
2023-03-05T00:50:12.698Z,2.58
2023-03-05T00:52:15.013Z,2.63
2023-03-05T00:54:18.055Z,2.90
2023-03-05T00:56:20.724Z,2.89
2023-03-05T00:58:23.135Z,2.60
2023-03-05T01:00:25.991Z,2.58
2023-03-05T01:02:28.610Z,2.50
2023-03-05T01:04:31.370Z,2.54
2023-03-05T01:06:33.709Z,2.72
2023-03-05T01:08:37.424Z,2.38
2023-03-05T01:10:40.026Z,2.57
2023-03-05T01:12:42.775Z,2.74
2023-03-05T01:14:45.350Z,2.31
2023-03-05T01:16:48.461Z,2.63
2023-03-05T01:18:50.980Z,2.27
2023-03-05T01:20:53.347Z,2.49
2023-03-05T01:22:55.619Z,2.44
2023-03-05T01:24:58.178Z,2.39
2023-03-05T01:27:00.357Z,2.33
2023-03-05T01:29:03.131Z,2.32
2023-03-05T01:31:08.994Z,2.45
2023-03-05T01:33:11.775Z,1.81
2023-03-05T01:35:21.001Z,2.04
2023-03-05T01:37:23.168Z,1.81
2023-03-05T01:39:25.785Z,1.89
2023-03-05T01:41:28.371Z,1.88
2023-03-05T01:43:31.758Z,2.01
2023-03-05T01:45:34.726Z,1.80
2023-03-05T01:47:37.539Z,1.70
2023-03-05T01:49:41.714Z,1.76
2023-03-05T01:51:54.466Z,1.96
2023-03-05T01:53:59.466Z,1.82
2023-03-05T01:56:01.970Z,1.63
2023-03-05T01:58:10.359Z,1.53
2023-03-05T02:00:34.300Z,2.00
2023-03-05T02:02:36.970Z,1.63
2023-03-05T02:04:48.780Z,1.66
2023-03-05T02:06:50.980Z,1.89
2023-03-05T02:08:53.230Z,1.82
2023-03-05T02:10:56.835Z,1.72
2023-03-05T02:13:02.641Z,1.94
2023-03-05T02:15:05.591Z,1.68
2023-03-05T02:17:09.277Z,1.81
2023-03-05T02:19:12.667Z,1.47
2023-03-05T02:21:26.769Z,1.61
2023-03-05T02:23:34.183Z,1.91
2023-03-05T02:25:36.517Z,1.50
2023-03-05T02:27:41.257Z,1.60
2023-03-05T02:29:46.916Z,1.74
2023-03-05T02:31:49.242Z,1.09
2023-03-05T02:33:54.398Z,1.43
2023-03-05T02:35:56.929Z,1.38
2023-03-05T02:37:59.469Z,1.50
2023-03-05T02:40:02.489Z,1.25
2023-03-05T02:42:05.417Z,1.31
2023-03-05T02:44:07.934Z,1.09
2023-03-05T02:46:11.302Z,1.24
2023-03-05T02:48:14.906Z,1.06
2023-03-05T02:50:17.366Z,1.38
2023-03-05T02:52:21.397Z,1.22
2023-03-05T02:54:23.697Z,1.23
2023-03-05T02:56:25.969Z,1.32
2023-03-05T02:58:29.663Z,1.56
2023-03-05T03:00:31.875Z,1.39
2023-03-05T03:02:34.418Z,1.10
2023-03-05T03:04:36.713Z,1.21
2023-03-05T03:06:38.984Z,1.18
2023-03-05T03:08:41.341Z,0.75
2023-03-05T03:10:43.939Z,0.79
2023-03-05T03:12:46.416Z,1.02
2023-03-05T03:14:49.010Z,1.12
2023-03-05T03:16:51.521Z,1.04
2023-03-05T03:18:53.949Z,1.00
2023-03-05T03:20:56.359Z,0.85
2023-03-05T03:22:58.682Z,0.94
2023-03-05T03:25:02.155Z,0.70
2023-03-05T03:27:05.332Z,0.73
2023-03-05T03:29:08.030Z,1.10
2023-03-05T03:31:10.504Z,0.75
2023-03-05T03:33:12.922Z,1.01
2023-03-05T03:35:15.372Z,0.66
2023-03-05T03:37:18.080Z,0.48
2023-03-05T03:39:21.695Z,0.96
2023-03-05T03:41:24.188Z,0.79
2023-03-05T03:43:26.551Z,0.91
2023-03-05T03:45:28.965Z,0.82
2023-03-05T03:47:31.490Z,0.57
2023-03-05T03:49:33.932Z,0.81
2023-03-05T03:51:36.159Z,1.00
2023-03-05T03:53:38.674Z,0.93
2023-03-05T03:55:48.106Z,0.76
2023-03-05T03:57:50.374Z,0.93
2023-03-05T03:59:52.968Z,0.78
2023-03-05T04:01:55.313Z,0.68
2023-03-05T04:03:57.915Z,0.79
2023-03-05T04:06:00.382Z,1.00
2023-03-05T04:08:04.319Z,0.94
2023-03-05T04:10:07.113Z,0.85
2023-03-05T04:12:09.917Z,0.87
2023-03-05T04:14:12.523Z,0.81
2023-03-05T04:16:16.316Z,0.73
2023-03-05T04:18:19.051Z,0.49
2023-03-05T04:20:21.745Z,0.86
2023-03-05T04:22:23.920Z,0.77
2023-03-05T04:24:26.473Z,0.89
2023-03-05T04:26:28.658Z,0.82
2023-03-05T04:28:31.501Z,0.58
2023-03-05T04:30:33.702Z,0.96
2023-03-05T04:32:36.228Z,0.80
2023-03-05T04:34:38.733Z,0.76
2023-03-05T04:36:41.203Z,0.76
2023-03-05T04:38:43.666Z,0.47
2023-03-05T04:40:46.615Z,0.51
2023-03-05T04:42:49.093Z,0.84
2023-03-05T04:44:51.750Z,0.91
2023-03-05T04:46:54.277Z,0.64
2023-03-05T04:48:58.054Z,0.73
2023-03-05T04:51:01.012Z,0.72
2023-03-05T04:53:04.365Z,0.68
2023-03-05T04:55:07.375Z,0.76
2023-03-05T04:57:09.664Z,0.72
2023-03-05T04:59:12.128Z,0.85
2023-03-05T05:01:14.358Z,0.41
2023-03-05T05:03:17.320Z,0.72
2023-03-05T05:05:23.061Z,0.66
2023-03-05T05:07:25.822Z,0.72
2023-03-05T05:09:28.353Z,0.52
2023-03-05T05:11:30.805Z,0.42
2023-03-05T05:13:34.516Z,0.38
2023-03-05T05:15:36.840Z,-0.08
2023-03-05T05:17:40.293Z,0.24
2023-03-05T05:19:42.680Z,0.25
2023-03-05T05:21:45.108Z,-0.13
2023-03-05T05:23:47.491Z,0.49
2023-03-05T05:26:03.402Z,0.71
2023-03-05T05:28:05.879Z,0.50
2023-03-05T05:30:09.124Z,0.06
2023-03-05T05:32:19.185Z,0.12
2023-03-05T05:34:21.546Z,0.34
2023-03-05T05:36:24.439Z,-0.31
2023-03-05T05:38:26.844Z,-0.12
2023-03-05T05:40:29.327Z,-0.02
2023-03-05T05:42:31.998Z,-0.23
2023-03-05T05:44:35.367Z,0.08
2023-03-05T05:46:37.705Z,-0.10
2023-03-05T05:48:39.891Z,0.08
2023-03-05T05:50:42.454Z,-0.09
2023-03-05T05:52:44.705Z,-0.50
2023-03-05T05:54:46.962Z,-0.26
2023-03-05T05:56:49.556Z,-0.40
2023-03-05T05:58:52.046Z,-0.38
2023-03-05T06:00:54.861Z,-0.25
2023-03-05T06:02:57.700Z,-0.18
2023-03-05T06:05:00.265Z,-0.27
2023-03-05T06:07:03.637Z,-0.09
2023-03-05T06:09:06.382Z,-0.27
2023-03-05T06:11:09.627Z,-0.28
2023-03-05T06:13:12.064Z,0.22
2023-03-05T06:15:15.018Z,-0.39
2023-03-05T06:17:28.531Z,0.09
2023-03-05T06:19:31.268Z,-0.13
2023-03-05T06:21:34.035Z,-0.20
2023-03-05T06:23:36.753Z,-0.17
2023-03-05T06:25:38.996Z,0.37
2023-03-05T06:27:41.190Z,0.39
2023-03-05T06:29:43.627Z,-0.03
2023-03-05T06:31:46.119Z,-0.02
2023-03-05T06:33:49.708Z,0.12
2023-03-05T06:35:52.473Z,0.09
2023-03-05T06:37:54.868Z,0.08
2023-03-05T06:39:57.271Z,0.17
2023-03-05T06:41:59.893Z,0.03
2023-03-05T06:44:03.736Z,0.00
2023-03-05T06:46:09.514Z,0.54
2023-03-05T06:48:13.161Z,0.51
2023-03-05T06:50:15.924Z,0.57
2023-03-05T06:52:18.358Z,0.38
2023-03-05T06:54:20.768Z,0.09
2023-03-05T06:56:23.645Z,0.43
2023-03-05T06:58:26.186Z,0.17
2023-03-05T07:00:31.122Z,0.62
2023-03-05T07:02:34.178Z,0.55
2023-03-05T07:04:36.558Z,0.44
2023-03-05T07:06:40.841Z,0.63
2023-03-05T07:08:47.014Z,0.40
2023-03-05T07:10:49.752Z,0.80
2023-03-05T07:12:52.014Z,1.17
2023-03-05T07:14:54.772Z,0.93
2023-03-05T07:16:57.187Z,0.78
2023-03-05T07:19:03.449Z,0.66
2023-03-05T07:21:07.849Z,0.81
2023-03-05T07:23:10.137Z,0.77
2023-03-05T07:25:12.834Z,0.95
2023-03-05T07:27:15.218Z,0.89
2023-03-05T07:29:17.707Z,0.86
2023-03-05T07:31:23.126Z,0.95
2023-03-05T07:33:26.828Z,0.86
2023-03-05T07:35:29.315Z,1.18
2023-03-05T07:37:31.999Z,1.13
2023-03-05T07:39:34.773Z,1.24
2023-03-05T07:41:37.045Z,1.46
2023-03-05T07:43:40.575Z,1.37
2023-03-05T07:45:44.894Z,1.41
2023-03-05T07:47:47.410Z,1.25
2023-03-05T07:49:50.768Z,1.32
2023-03-05T07:51:53.204Z,1.37
2023-03-05T07:53:57.794Z,1.41
2023-03-05T07:56:00.511Z,1.29
2023-03-05T07:58:02.919Z,1.34
2023-03-05T08:00:07.449Z,1.23
2023-03-05T08:02:14.901Z,1.13
2023-03-05T08:04:17.493Z,1.44
2023-03-05T08:06:20.446Z,1.50
2023-03-05T08:08:22.969Z,1.57
2023-03-05T08:10:25.755Z,1.42
2023-03-05T08:12:28.199Z,1.57
2023-03-05T08:14:30.639Z,1.75
2023-03-05T08:16:32.925Z,1.78
2023-03-05T08:18:35.942Z,1.56
2023-03-05T08:20:38.223Z,1.65
2023-03-05T08:22:40.621Z,1.34
2023-03-05T08:24:43.433Z,1.73
2023-03-05T08:26:45.994Z,1.74
2023-03-05T08:28:48.640Z,1.81
2023-03-05T08:30:51.002Z,1.82
2023-03-05T08:32:54.713Z,1.84
2023-03-05T08:35:03.180Z,1.65
2023-03-05T08:37:06.662Z,1.81
2023-03-05T08:39:10.307Z,1.84
2023-03-05T08:41:13.636Z,1.71
2023-03-05T08:43:18.041Z,1.56
2023-03-05T08:45:20.404Z,1.95
2023-03-05T08:47:25.672Z,1.63
2023-03-05T08:49:28.406Z,1.62
2023-03-05T08:51:30.820Z,1.63
2023-03-05T08:53:34.259Z,1.92
2023-03-05T08:55:38.035Z,2.07
2023-03-05T08:57:40.604Z,2.23
2023-03-05T08:59:42.957Z,2.06
2023-03-05T09:01:45.645Z,2.15
2023-03-05T09:03:48.247Z,2.22
2023-03-05T09:05:53.316Z,1.86
2023-03-05T09:07:55.933Z,2.17
2023-03-05T09:09:58.720Z,2.00
2023-03-05T09:12:02.507Z,2.39
2023-03-05T09:14:07.077Z,2.28
2023-03-05T09:16:14.278Z,2.53
2023-03-05T09:18:17.028Z,2.41
2023-03-05T09:20:19.495Z,2.18
2023-03-05T09:22:22.118Z,2.59
2023-03-05T09:24:24.821Z,2.26
2023-03-05T09:26:27.641Z,2.13
2023-03-05T09:28:30.417Z,1.92
2023-03-05T09:30:35.605Z,2.12
2023-03-05T09:32:38.625Z,2.33
2023-03-05T09:34:41.211Z,2.17
2023-03-05T09:36:43.809Z,1.85
2023-03-05T09:38:46.568Z,2.13
2023-03-05T09:41:16.301Z,2.47
2023-03-05T09:43:38.912Z,2.43
2023-03-05T09:46:04.206Z,2.03
2023-03-05T09:48:47.340Z,2.12
2023-03-05T09:51:15.014Z,1.82
2023-03-05T09:53:30.933Z,1.81
2023-03-05T09:55:44.440Z,2.19
2023-03-05T09:57:52.365Z,2.42
2023-03-05T10:00:00.039Z,2.18
2023-03-05T10:02:25.054Z,2.48
2023-03-05T10:04:49.118Z,2.05
2023-03-05T10:09:53.893Z,2.57
2023-03-05T10:12:13.421Z,2.42
2023-03-05T10:14:31.292Z,2.19
2023-03-05T10:16:48.418Z,2.72
2023-03-05T10:19:03.499Z,2.55
2023-03-05T10:21:25.347Z,2.48
2023-03-05T10:23:49.446Z,2.99
2023-03-05T10:26:13.393Z,3.03
2023-03-05T10:28:29.835Z,2.91
2023-03-05T10:30:55.093Z,3.30
2023-03-05T10:33:33.570Z,3.31
2023-03-05T10:36:17.205Z,3.41
2023-03-05T10:38:45.174Z,3.59
2023-03-05T10:40:53.143Z,3.12
2023-03-05T10:43:07.910Z,3.05
2023-03-05T10:45:29.946Z,2.95
2023-03-05T10:47:54.808Z,3.28
2023-03-05T10:49:59.540Z,2.76
2023-03-05T10:52:05.746Z,2.56
2023-03-05T10:54:30.148Z,3.01
2023-03-05T10:56:33.004Z,2.40
2023-03-05T10:58:35.513Z,2.83
2023-03-05T11:00:38.410Z,2.52
2023-03-05T11:03:02.359Z,2.60
2023-03-05T11:05:05.586Z,2.47
2023-03-05T11:07:35.402Z,2.63
2023-03-05T11:09:37.770Z,2.84
2023-03-05T11:11:40.065Z,2.53
2023-03-05T11:13:54.133Z,3.01
2023-03-05T11:16:02.611Z,2.92
2023-03-05T11:18:19.917Z,3.45
2023-03-05T11:20:28.458Z,3.75
2023-03-05T11:22:35.676Z,3.50
2023-03-05T11:24:38.363Z,3.93
2023-03-05T11:26:49.782Z,3.49
2023-03-05T11:28:52.224Z,4.24
2023-03-05T11:31:16.220Z,4.58
2023-03-05T11:33:23.068Z,4.80
2023-03-05T11:35:35.272Z,4.77
2023-03-05T11:37:37.945Z,5.30
2023-03-05T11:39:41.924Z,5.44
2023-03-05T11:42:01.405Z,5.22
2023-03-05T11:44:19.932Z,5.33
2023-03-05T11:46:24.143Z,5.35
2023-03-05T11:48:32.923Z,5.42
2023-03-05T11:50:36.231Z,5.11
2023-03-05T11:52:47.615Z,5.05
2023-03-05T11:55:16.393Z,4.83
2023-03-05T11:57:21.742Z,4.44
2023-03-05T11:59:32.091Z,4.31
2023-03-05T12:01:45.478Z,4.33
2023-03-05T12:03:50.041Z,4.56
2023-03-05T12:06:06.542Z,4.39
2023-03-05T12:08:16.203Z,4.38
2023-03-05T12:10:25.094Z,4.17
2023-03-05T12:12:57.374Z,4.47
2023-03-05T12:15:25.828Z,4.56
2023-03-05T12:17:40.835Z,4.02
2023-03-05T12:19:55.492Z,4.12
2023-03-05T12:21:58.580Z,3.99
2023-03-05T12:24:03.565Z,4.44
2023-03-05T12:26:06.233Z,4.10
2023-03-05T12:28:15.540Z,4.26
2023-03-05T12:30:42.813Z,4.44
2023-03-05T12:32:46.470Z,4.43
2023-03-05T12:34:56.499Z,4.09
2023-03-05T12:36:59.056Z,4.47
2023-03-05T12:39:02.079Z,4.20
2023-03-05T12:41:32.986Z,4.33
2023-03-05T12:43:36.734Z,4.28
2023-03-05T12:45:41.718Z,3.99
2023-03-05T12:47:48.377Z,4.40
2023-03-05T12:49:51.296Z,3.98
2023-03-05T12:51:56.302Z,4.34
2023-03-05T12:54:23.758Z,3.89
2023-03-05T12:56:31.427Z,4.05
2023-03-05T12:58:57.927Z,3.94
2023-03-05T13:01:27.128Z,4.24
2023-03-05T13:03:45.938Z,3.65
2023-03-05T13:05:55.151Z,3.91
2023-03-05T13:08:36.672Z,4.03
2023-03-05T13:10:40.521Z,3.63
2023-03-05T13:12:54.329Z,3.64
2023-03-05T13:15:05.519Z,3.94
2023-03-05T13:17:26.266Z,3.96
2023-03-05T13:19:30.328Z,3.67
2023-03-05T13:21:36.127Z,3.78
2023-03-05T13:23:39.008Z,3.70
2023-03-05T13:25:41.772Z,3.58
2023-03-05T13:27:44.487Z,3.81
2023-03-05T13:29:54.086Z,3.23
2023-03-05T13:32:02.104Z,3.53
2023-03-05T13:34:29.857Z,3.78
2023-03-05T13:36:38.784Z,3.79
2023-03-05T13:38:47.253Z,3.88
2023-03-05T13:41:20.484Z,3.94
2023-03-05T13:43:22.996Z,3.73
2023-03-05T13:45:33.006Z,3.67
2023-03-05T13:47:37.702Z,3.95
2023-03-05T13:49:40.112Z,3.47
2023-03-05T13:51:48.067Z,3.61
2023-03-05T13:53:51.647Z,3.86
2023-03-05T13:56:02.928Z,3.94
2023-03-05T13:58:05.342Z,3.46
2023-03-05T14:00:25.473Z,3.70
2023-03-05T14:02:31.816Z,3.43
2023-03-05T14:04:40.814Z,3.52
2023-03-05T14:07:36.004Z,3.79
2023-03-05T14:09:41.240Z,3.81
2023-03-05T14:12:04.121Z,3.50
2023-03-05T14:14:15.559Z,3.45
2023-03-05T14:16:28.556Z,3.20
2023-03-05T14:18:30.965Z,3.24
2023-03-05T14:20:33.536Z,3.37
2023-03-05T14:22:38.776Z,3.27
2023-03-05T14:24:53.261Z,2.93
2023-03-05T14:27:05.908Z,3.36
2023-03-05T14:29:11.195Z,3.61
2023-03-05T14:31:17.809Z,3.42
2023-03-05T14:33:31.236Z,3.30
2023-03-05T14:35:34.295Z,2.99
2023-03-05T14:37:45.677Z,3.35
2023-03-05T14:39:57.180Z,3.35
2023-03-05T14:42:19.696Z,3.65
2023-03-05T14:44:25.904Z,2.98
2023-03-05T14:46:29.031Z,3.39
2023-03-05T14:48:31.868Z,3.31
2023-03-05T14:50:41.954Z,3.28
2023-03-05T14:52:46.312Z,3.18
2023-03-05T14:54:49.688Z,3.27
2023-03-05T14:56:52.964Z,3.20
2023-03-05T14:58:57.966Z,3.48
2023-03-05T15:01:00.711Z,3.16
2023-03-05T15:03:03.761Z,3.07
2023-03-05T15:07:31.603Z,2.94
2023-03-05T15:09:34.243Z,3.33
2023-03-05T15:11:37.279Z,3.20
2023-03-05T15:13:40.380Z,3.37
2023-03-05T15:15:44.263Z,2.83
2023-03-05T15:17:50.051Z,3.15
2023-03-05T15:19:54.750Z,3.14
2023-03-05T15:21:57.315Z,3.32
2023-03-05T15:23:59.823Z,2.94
2023-03-05T15:26:07.114Z,3.01
2023-03-05T15:28:09.854Z,3.13
2023-03-05T15:30:25.053Z,3.18
2023-03-05T15:32:29.674Z,2.61
2023-03-05T15:34:34.328Z,3.39
2023-03-05T15:36:36.867Z,3.17
2023-03-05T15:38:42.055Z,3.05
2023-03-05T15:40:45.302Z,2.76
2023-03-05T15:42:48.431Z,3.11
2023-03-05T15:44:51.325Z,3.08
2023-03-05T15:46:54.555Z,3.26
2023-03-05T15:48:57.343Z,3.21
2023-03-05T15:50:59.996Z,3.02
2023-03-05T15:53:02.687Z,2.96
2023-03-05T15:55:06.297Z,3.09
2023-03-05T15:57:11.444Z,3.24
2023-03-05T15:59:14.719Z,2.78
2023-03-05T16:01:20.823Z,2.74
2023-03-05T16:03:23.997Z,3.19
2023-03-05T16:05:26.651Z,2.63
2023-03-05T16:07:32.805Z,3.00
2023-03-05T16:09:43.685Z,2.54
2023-03-05T16:11:48.499Z,3.00
2023-03-05T16:13:51.060Z,2.68
2023-03-05T16:15:54.901Z,2.60
2023-03-05T16:18:01.179Z,2.57
2023-03-05T16:20:05.483Z,2.86
2023-03-05T16:22:09.068Z,2.77
2023-03-05T16:24:11.632Z,2.25
2023-03-05T16:26:14.132Z,2.32
2023-03-05T16:28:17.080Z,2.59
2023-03-05T16:30:20.160Z,2.38
2023-03-05T16:32:23.148Z,2.14
2023-03-05T16:34:25.829Z,2.08
2023-03-05T16:36:31.965Z,2.20
2023-03-05T16:38:34.696Z,2.18
2023-03-05T16:41:05.955Z,2.04
2023-03-05T16:43:01.877Z,2.01
2023-03-05T16:45:06.386Z,2.14
2023-03-05T16:47:12.220Z,2.21
2023-03-05T16:49:14.984Z,2.19
2023-03-05T16:51:19.872Z,2.05
2023-03-05T16:53:22.796Z,2.02
2023-03-05T16:55:25.605Z,1.96
2023-03-05T16:57:29.412Z,1.76
2023-03-05T16:59:32.057Z,1.93
2023-03-05T17:01:34.896Z,1.98
2023-03-05T17:03:39.497Z,2.10
2023-03-05T17:05:42.491Z,1.83
2023-03-05T17:07:46.013Z,2.28
2023-03-05T17:09:50.988Z,2.15
2023-03-05T17:11:54.650Z,2.12
2023-03-05T17:13:57.067Z,2.06
2023-03-05T17:16:00.261Z,2.03
2023-03-05T17:18:03.332Z,2.04
2023-03-05T17:20:07.224Z,2.07
2023-03-05T17:22:12.094Z,2.02
2023-03-05T17:24:14.682Z,1.98
2023-03-05T17:26:20.006Z,2.18
2023-03-05T17:28:23.037Z,2.23
2023-03-05T17:30:26.282Z,2.38
2023-03-05T17:32:29.073Z,2.15
2023-03-05T17:34:36.682Z,1.93
2023-03-05T17:36:39.760Z,1.77
2023-03-05T17:38:42.790Z,1.74
2023-03-05T17:40:45.431Z,2.28
2023-03-05T17:42:48.231Z,2.11
2023-03-05T17:44:50.893Z,2.23
2023-03-05T17:46:53.574Z,2.30
2023-03-05T17:48:56.641Z,1.81
2023-03-05T17:50:59.262Z,2.23
2023-03-05T17:53:02.067Z,1.94
2023-03-05T17:55:11.033Z,2.22
2023-03-05T17:57:13.470Z,1.67
2023-03-05T17:59:16.665Z,1.97
2023-03-05T18:01:24.333Z,2.37
2023-03-05T18:03:27.366Z,2.09
2023-03-05T18:05:30.477Z,2.05
2023-03-05T18:07:33.885Z,1.80
2023-03-05T18:09:36.895Z,1.69
2023-03-05T18:11:39.579Z,1.97
2023-03-05T18:13:43.089Z,1.65
2023-03-05T18:15:48.044Z,1.65
2023-03-05T18:17:52.244Z,1.77
2023-03-05T18:19:55.183Z,2.01
2023-03-05T18:21:58.657Z,1.48
2023-03-05T18:24:01.174Z,1.38
2023-03-05T18:26:03.893Z,2.06
2023-03-05T18:28:09.910Z,1.50
2023-03-05T18:30:12.916Z,1.50
2023-03-05T18:32:15.505Z,1.81
2023-03-05T18:34:19.705Z,1.69
2023-03-05T18:36:22.304Z,1.58
2023-03-05T18:38:28.630Z,1.65
2023-03-05T18:40:35.832Z,1.47
2023-03-05T18:42:39.282Z,1.85
2023-03-05T18:44:42.895Z,1.22
2023-03-05T18:46:45.621Z,1.72
2023-03-05T18:48:48.495Z,1.29
2023-03-05T18:50:54.922Z,1.58
2023-03-05T18:52:57.677Z,1.80
2023-03-05T18:55:00.509Z,1.48
2023-03-05T18:57:03.160Z,1.43
2023-03-05T18:59:06.327Z,1.37
2023-03-05T19:01:09.652Z,1.55
2023-03-05T19:03:12.658Z,1.45
2023-03-05T19:05:16.589Z,1.71
2023-03-05T19:07:19.228Z,1.54
2023-03-05T19:09:37.904Z,1.56
2023-03-05T19:11:40.222Z,1.68
2023-03-05T19:13:45.916Z,1.54
2023-03-05T19:15:48.507Z,1.45
2023-03-05T19:17:51.350Z,1.42
2023-03-05T19:19:55.793Z,1.85
2023-03-05T19:22:00.145Z,1.76
2023-03-05T19:24:03.616Z,1.45
2023-03-05T19:26:06.485Z,1.60
2023-03-05T19:28:09.200Z,1.27
2023-03-05T19:30:13.188Z,1.56
2023-03-05T19:32:18.020Z,1.86
2023-03-05T19:34:22.264Z,1.61
2023-03-05T19:36:24.799Z,1.38
2023-03-05T19:38:27.514Z,1.53
2023-03-05T19:40:30.667Z,1.51
2023-03-05T19:42:33.288Z,1.67
2023-03-05T19:44:36.536Z,1.67
2023-03-05T19:46:42.604Z,1.57
2023-03-05T19:48:46.377Z,1.91
2023-03-05T19:50:49.002Z,1.60
2023-03-05T19:52:51.458Z,1.52
2023-03-05T19:54:53.849Z,1.48
2023-03-05T19:56:56.415Z,1.68
2023-03-05T19:58:59.149Z,1.26
2023-03-05T20:01:09.411Z,1.23
2023-03-05T20:03:12.521Z,1.52
2023-03-05T20:05:15.264Z,1.11
2023-03-05T20:07:18.256Z,1.26
2023-03-05T20:09:20.912Z,1.18
2023-03-05T20:11:24.590Z,1.58
2023-03-05T20:13:28.170Z,1.00
2023-03-05T20:15:30.859Z,1.35
2023-03-05T20:17:33.906Z,1.35
2023-03-05T20:19:36.916Z,1.03
2023-03-05T20:21:41.511Z,1.21
2023-03-05T20:23:44.427Z,1.29
2023-03-05T20:25:49.669Z,1.06
2023-03-05T20:27:52.970Z,1.32
2023-03-05T20:29:55.958Z,1.22
2023-03-05T20:31:58.733Z,1.16
2023-03-05T20:34:01.345Z,1.34
2023-03-05T20:36:04.492Z,1.23
2023-03-05T20:38:23.389Z,1.33
2023-03-05T20:40:26.799Z,1.22
2023-03-05T20:42:29.216Z,1.22
2023-03-05T20:44:31.909Z,1.13
2023-03-05T20:46:37.464Z,1.24
2023-03-05T20:48:40.255Z,1.42
2023-03-05T20:50:43.337Z,1.12
2023-03-05T20:52:46.027Z,1.02
2023-03-05T20:54:49.328Z,1.35
2023-03-05T20:56:52.177Z,0.90
2023-03-05T20:58:55.820Z,0.96
2023-03-05T21:00:58.773Z,1.28
2023-03-05T21:03:01.322Z,1.17
2023-03-05T21:05:04.561Z,1.05
2023-03-05T21:07:07.387Z,1.05
2023-03-05T21:09:09.717Z,1.52
2023-03-05T21:11:12.997Z,1.34
2023-03-05T21:13:15.530Z,1.31
2023-03-05T21:15:21.654Z,1.35
2023-03-05T21:17:24.145Z,1.44
2023-03-05T21:19:26.500Z,1.31
2023-03-05T21:21:29.014Z,1.44
2023-03-05T21:23:31.962Z,1.49
2023-03-05T21:25:34.911Z,1.29
2023-03-05T21:27:37.368Z,1.06
2023-03-05T21:29:39.854Z,1.28
2023-03-05T21:31:42.258Z,0.91
2023-03-05T21:33:45.020Z,0.94
2023-03-05T21:35:47.753Z,0.44
2023-03-05T21:37:52.968Z,1.02
2023-03-05T21:39:55.638Z,0.85
2023-03-05T21:41:57.890Z,0.93
2023-03-05T21:44:04.250Z,1.04
2023-03-05T21:46:06.755Z,0.83
2023-03-05T21:48:10.471Z,1.16
2023-03-05T21:50:14.916Z,1.25
2023-03-05T21:52:17.180Z,1.17
2023-03-05T21:54:19.858Z,0.88
2023-03-05T21:56:24.427Z,0.71
2023-03-05T21:58:26.954Z,0.98
2023-03-05T22:00:29.563Z,0.97
2023-03-05T22:02:32.712Z,0.80
2023-03-05T22:04:35.030Z,1.01
2023-03-05T22:06:38.192Z,1.07
2023-03-05T22:08:40.766Z,1.21
2023-03-05T22:10:43.063Z,0.85
2023-03-05T22:12:57.737Z,1.04
2023-03-05T22:15:01.077Z,1.03
2023-03-05T22:17:03.533Z,0.97
2023-03-05T22:19:06.201Z,0.89
2023-03-05T22:21:18.351Z,0.68
2023-03-05T22:23:23.103Z,1.35
2023-03-05T22:25:25.511Z,0.91
2023-03-05T22:27:27.841Z,1.01
2023-03-05T22:29:30.369Z,1.26
2023-03-05T22:31:33.254Z,1.14
2023-03-05T22:33:36.220Z,1.11
2023-03-05T22:35:41.456Z,1.11
2023-03-05T22:37:44.415Z,0.84
2023-03-05T22:39:46.696Z,1.03
2023-03-05T22:41:49.636Z,1.04
2023-03-05T22:43:51.984Z,0.81
2023-03-05T22:45:54.153Z,0.88
2023-03-05T22:47:56.620Z,1.13
2023-03-05T22:49:59.483Z,1.07
2023-03-05T22:52:02.039Z,1.04
2023-03-05T22:54:04.804Z,1.14
2023-03-05T22:56:13.268Z,1.18
2023-03-05T22:58:15.677Z,0.98
2023-03-05T23:00:23.739Z,0.82
2023-03-05T23:02:26.693Z,0.78
2023-03-05T23:05:00.504Z,1.23
2023-03-05T23:07:02.867Z,0.99
2023-03-05T23:09:05.345Z,0.91
2023-03-05T23:11:12.838Z,0.73
2023-03-05T23:13:15.310Z,0.49
2023-03-05T23:15:24.300Z,0.85
2023-03-05T23:17:27.734Z,0.86
2023-03-05T23:19:30.293Z,0.77
2023-03-05T23:21:32.728Z,0.59
2023-03-05T23:23:35.276Z,1.03
2023-03-05T23:25:37.983Z,0.81
2023-03-05T23:27:41.097Z,0.92
2023-03-05T23:30:08.412Z,0.75
2023-03-05T23:32:10.867Z,1.02
2023-03-05T23:34:13.629Z,0.30
2023-03-05T23:36:20.150Z,0.77
2023-03-05T23:38:24.057Z,0.42
2023-03-05T23:40:36.178Z,0.76
2023-03-05T23:42:39.422Z,0.53
2023-03-05T23:44:41.737Z,0.75
2023-03-05T23:46:44.135Z,0.77
2023-03-05T23:48:46.456Z,0.26
2023-03-05T23:50:50.545Z,0.68
2023-03-05T23:52:54.510Z,0.95
2023-03-05T23:54:56.880Z,0.77
2023-03-05T23:56:59.725Z,0.74
2023-03-05T23:59:02.541Z,0.77
